createdAt,value
2019-04-30T00:01:33.069Z,37.80
2019-04-30T00:04:07.400Z,39.30
2019-04-30T00:06:39.197Z,37.93
2019-04-30T00:09:05.432Z,35.88
2019-04-30T00:11:36.260Z,37.73
2019-04-30T00:14:03.307Z,36.58
2019-04-30T00:16:31.057Z,37.60
2019-04-30T00:19:00.820Z,40.23
2019-04-30T00:21:28.424Z,35.63
2019-04-30T00:24:00.827Z,36.70
2019-04-30T00:26:26.528Z,36.95
2019-04-30T00:28:55.356Z,36.38
2019-04-30T00:31:23.962Z,32.95
2019-04-30T00:33:52.748Z,37.45
2019-04-30T00:36:20.812Z,37.78
2019-04-30T00:38:47.869Z,34.10
2019-04-30T00:41:15.556Z,35.92
2019-04-30T00:43:49.302Z,34.35
2019-04-30T00:46:11.620Z,32.70
2019-04-30T00:48:39.110Z,31.45
2019-04-30T00:51:35.476Z,32.63
2019-04-30T00:54:02.985Z,32.42
2019-04-30T00:56:30.121Z,32.38
2019-04-30T00:59:02.311Z,30.80
2019-04-30T01:01:43.629Z,28.85
2019-04-30T01:04:28.239Z,28.00
2019-04-30T01:06:59.985Z,24.72
2019-04-30T01:09:25.699Z,24.20
2019-04-30T01:11:52.565Z,23.52
2019-04-30T01:14:23.147Z,18.55
2019-04-30T01:16:49.350Z,20.17
2019-04-30T01:19:29.721Z,21.12
2019-04-30T01:21:49.166Z,18.23
2019-04-30T01:24:16.410Z,17.57
2019-04-30T01:26:43.443Z,19.27
2019-04-30T01:29:10.766Z,17.57
2019-04-30T01:31:40.729Z,18.17
2019-04-30T01:34:10.334Z,18.42
2019-04-30T01:36:35.335Z,17.30
2019-04-30T01:39:03.930Z,14.73
2019-04-30T01:41:32.037Z,15.63
2019-04-30T01:43:59.240Z,15.55
2019-04-30T01:46:26.570Z,14.07
2019-04-30T01:48:53.894Z,12.60
2019-04-30T01:51:21.910Z,12.98
2019-04-30T01:53:48.709Z,13.70
2019-04-30T01:56:33.021Z,14.73
2019-04-30T01:59:04.924Z,10.48
2019-04-30T02:01:33.956Z,11.05
2019-04-30T02:04:01.409Z,11.25
2019-04-30T02:06:29.455Z,11.35
2019-04-30T02:08:56.433Z,10.78
2019-04-30T02:11:23.595Z,10.68
2019-04-30T02:13:50.881Z,10.03
2019-04-30T02:16:20.760Z,10.75
2019-04-30T02:18:46.982Z,10.53
2019-04-30T02:21:13.975Z,12.25
2019-04-30T02:23:43.313Z,12.90
2019-04-30T02:26:10.467Z,10.23
2019-04-30T02:28:39.263Z,9.58
2019-04-30T02:31:06.267Z,45.10
2019-04-30T02:33:37.251Z,16.77
2019-04-30T02:36:24.281Z,11.30
2019-04-30T02:38:54.937Z,11.83
2019-04-30T02:41:23.505Z,12.30
2019-04-30T02:43:53.418Z,12.25
2019-04-30T02:46:22.001Z,10.55
2019-04-30T02:48:50.496Z,10.75
2019-04-30T02:51:22.664Z,10.30
2019-04-30T02:54:01.126Z,11.97
2019-04-30T02:56:30.026Z,12.78
2019-04-30T02:58:57.116Z,14.28
2019-04-30T03:01:24.224Z,12.47
2019-04-30T03:03:51.812Z,21.07
2019-04-30T03:06:23.135Z,15.55
2019-04-30T03:08:50.681Z,13.30
2019-04-30T03:11:20.282Z,12.53
2019-04-30T03:13:45.755Z,13.20
2019-04-30T03:16:14.831Z,12.88
2019-04-30T03:18:49.919Z,12.37
2019-04-30T03:21:35.965Z,12.65
2019-04-30T03:24:03.004Z,14.23
2019-04-30T03:26:29.983Z,14.47
2019-04-30T03:28:56.811Z,12.40
2019-04-30T03:31:23.855Z,14.03
2019-04-30T03:33:52.356Z,12.35
2019-04-30T03:36:21.745Z,15.88
2019-04-30T03:38:50.020Z,13.62
2019-04-30T03:41:19.838Z,15.45
2019-04-30T03:43:46.454Z,15.55
2019-04-30T03:46:14.944Z,13.40
2019-04-30T03:48:41.878Z,11.63
2019-04-30T03:51:10.693Z,12.60
2019-04-30T03:53:39.720Z,30.17
2019-04-30T03:56:09.490Z,18.98
2019-04-30T03:58:38.950Z,13.72
2019-04-30T04:01:14.137Z,13.28
2019-04-30T04:04:00.557Z,11.75
2019-04-30T04:06:30.130Z,13.13
2019-04-30T04:09:00.238Z,15.55
2019-04-30T04:11:29.912Z,14.35
2019-04-30T04:13:59.520Z,12.05
2019-04-30T04:16:29.355Z,12.10
2019-04-30T04:18:55.467Z,12.40
2019-04-30T04:21:22.826Z,13.55
2019-04-30T04:23:50.291Z,11.57
2019-04-30T04:26:20.062Z,10.63
2019-04-30T04:28:49.674Z,13.60
2019-04-30T04:31:19.316Z,11.63
2019-04-30T04:33:46.408Z,11.38
2019-04-30T04:36:13.153Z,12.45
2019-04-30T04:38:42.124Z,10.70
2019-04-30T04:41:10.281Z,10.78
2019-04-30T04:43:40.036Z,13.00
2019-04-30T04:46:09.258Z,19.37
2019-04-30T04:48:36.009Z,14.40
2019-04-30T04:51:02.965Z,11.80
2019-04-30T04:53:32.810Z,13.43
2019-04-30T04:55:59.958Z,13.40
2019-04-30T04:58:27.141Z,12.63
2019-04-30T05:00:54.052Z,13.88
2019-04-30T05:03:23.248Z,18.10
2019-04-30T05:05:50.099Z,12.85
2019-04-30T05:08:18.574Z,14.03
2019-04-30T05:10:46.062Z,14.30
2019-04-30T05:13:13.070Z,12.45
2019-04-30T05:15:40.030Z,13.45
2019-04-30T05:18:09.216Z,11.55
2019-04-30T05:20:36.451Z,12.50
2019-04-30T05:23:03.563Z,12.20
2019-04-30T05:25:31.660Z,16.55
2019-04-30T05:27:58.844Z,13.32
2019-04-30T05:30:25.912Z,13.93
2019-04-30T05:32:52.880Z,16.10
2019-04-30T05:35:20.003Z,14.58
2019-04-30T05:37:47.035Z,16.73
2019-04-30T05:40:14.360Z,14.03
2019-04-30T05:42:41.381Z,18.02
2019-04-30T05:45:09.503Z,15.20
2019-04-30T05:47:38.724Z,16.50
2019-04-30T05:50:05.939Z,12.98
2019-04-30T05:52:32.778Z,13.93
2019-04-30T05:55:00.142Z,14.47
2019-04-30T05:57:29.319Z,14.90
2019-04-30T05:59:58.566Z,19.15
2019-04-30T06:02:25.622Z,15.55
2019-04-30T06:04:52.804Z,14.60
2019-04-30T06:07:19.763Z,15.80
2019-04-30T06:10:02.265Z,17.48
2019-04-30T06:12:36.129Z,22.52
2019-04-30T06:15:11.796Z,16.57
2019-04-30T06:17:40.248Z,13.90
2019-04-30T06:20:17.774Z,16.60
2019-04-30T06:22:38.487Z,15.98
2019-04-30T06:25:05.331Z,15.10
2019-04-30T06:27:32.271Z,16.10
2019-04-30T06:29:59.380Z,16.50
2019-04-30T06:32:26.573Z,16.62
2019-04-30T06:34:53.594Z,45.05
2019-04-30T06:37:20.637Z,20.57
2019-04-30T06:39:49.831Z,17.30
2019-04-30T06:42:16.730Z,27.15
2019-04-30T06:44:43.542Z,14.93
2019-04-30T06:47:11.009Z,15.23
2019-04-30T06:49:39.320Z,14.20
2019-04-30T06:52:18.205Z,16.12
2019-04-30T06:54:35.263Z,16.70
2019-04-30T06:57:02.526Z,17.07
2019-04-30T06:59:29.924Z,19.15
2019-04-30T07:01:58.956Z,17.37
2019-04-30T07:04:26.330Z,18.27
2019-04-30T07:06:53.369Z,18.48
2019-04-30T07:09:22.183Z,16.10
2019-04-30T07:12:09.047Z,19.17
2019-04-30T07:14:35.910Z,17.82
2019-04-30T07:17:02.871Z,20.48
2019-04-30T07:19:34.769Z,19.75
2019-04-30T07:21:59.403Z,19.42
2019-04-30T07:24:26.572Z,24.32
2019-04-30T07:26:54.730Z,18.92
2019-04-30T07:29:22.760Z,22.48
2019-04-30T07:31:51.682Z,24.55
2019-04-30T07:34:19.622Z,26.07
2019-04-30T07:36:51.459Z,27.60
2019-04-30T07:39:15.575Z,28.25
2019-04-30T07:41:42.295Z,25.80
2019-04-30T07:44:11.008Z,27.82
2019-04-30T07:46:41.205Z,25.12
2019-04-30T07:49:06.528Z,27.62
2019-04-30T07:51:37.792Z,27.80
2019-04-30T07:54:04.048Z,26.02
2019-04-30T07:56:37.238Z,30.35
2019-04-30T07:59:00.703Z,24.87
2019-04-30T08:01:29.544Z,25.82
2019-04-30T08:03:59.054Z,26.42
2019-04-30T08:06:26.746Z,27.73
2019-04-30T08:08:57.624Z,29.15
2019-04-30T08:11:26.471Z,26.25
2019-04-30T08:13:52.875Z,26.25
2019-04-30T08:16:20.272Z,27.62
2019-04-30T08:18:49.123Z,27.40
2019-04-30T08:21:15.637Z,26.85
2019-04-30T08:23:42.585Z,23.75
2019-04-30T08:26:10.422Z,26.97
2019-04-30T08:28:38.717Z,27.02
2019-04-30T08:31:05.717Z,26.07
2019-04-30T08:33:32.888Z,24.98
2019-04-30T08:36:00.980Z,26.95
2019-04-30T08:38:29.925Z,23.85
2019-04-30T08:40:58.849Z,28.05
2019-04-30T08:43:26.378Z,27.22
2019-04-30T08:45:53.255Z,26.68
2019-04-30T08:48:20.290Z,27.77
2019-04-30T08:50:49.181Z,28.42
2019-04-30T08:53:26.483Z,27.58
2019-04-30T08:55:44.992Z,25.15
2019-04-30T08:58:14.938Z,28.47
2019-04-30T09:00:40.941Z,26.05
2019-04-30T09:03:09.349Z,43.33
2019-04-30T09:05:38.660Z,37.53
2019-04-30T09:08:09.513Z,32.48
2019-04-30T09:10:36.519Z,30.70
2019-04-30T09:13:03.645Z,27.65
2019-04-30T09:15:30.714Z,28.55
2019-04-30T09:18:03.153Z,30.92
2019-04-30T09:20:26.434Z,31.50
2019-04-30T09:22:53.543Z,28.92
2019-04-30T09:25:20.521Z,31.73
2019-04-30T09:27:48.815Z,30.05
2019-04-30T09:30:15.871Z,31.27
2019-04-30T09:32:42.897Z,30.25
2019-04-30T09:35:10.267Z,28.57
2019-04-30T09:37:39.045Z,29.75
2019-04-30T09:40:16.174Z,33.38
2019-04-30T09:42:36.042Z,29.20
2019-04-30T09:45:04.808Z,28.15
2019-04-30T09:47:31.806Z,28.87
2019-04-30T09:49:59.633Z,29.30
2019-04-30T09:52:30.207Z,28.12
2019-04-30T09:54:55.281Z,32.95
2019-04-30T09:57:22.485Z,30.55
2019-04-30T09:59:49.323Z,31.00
2019-04-30T10:02:16.288Z,30.35
2019-04-30T10:04:43.725Z,28.17
2019-04-30T10:07:10.978Z,28.50
2019-04-30T10:09:38.843Z,27.82
2019-04-30T10:12:09.654Z,31.40
2019-04-30T10:14:36.830Z,28.00
2019-04-30T10:17:14.808Z,30.00
2019-04-30T10:19:42.164Z,27.90
2019-04-30T10:22:09.063Z,28.75
2019-04-30T10:24:36.492Z,23.67
2019-04-30T10:27:06.842Z,28.02
2019-04-30T10:29:32.482Z,29.23
2019-04-30T10:32:00.042Z,33.13
2019-04-30T10:34:27.213Z,29.85
2019-04-30T10:36:54.388Z,30.10
2019-04-30T10:39:21.785Z,31.37
2019-04-30T10:41:48.859Z,34.65
2019-04-30T10:44:15.866Z,32.30
2019-04-30T10:46:42.914Z,34.92
2019-04-30T10:49:09.864Z,36.23
2019-04-30T10:51:38.793Z,38.78
2019-04-30T10:54:05.942Z,36.13
2019-04-30T10:56:33.950Z,39.10
2019-04-30T10:59:00.634Z,45.20
2019-04-30T11:01:29.053Z,39.95
2019-04-30T11:03:57.453Z,38.78
2019-04-30T11:06:24.576Z,40.55
2019-04-30T11:08:51.745Z,44.15
2019-04-30T11:11:18.780Z,40.17
2019-04-30T11:13:45.823Z,36.83
2019-04-30T11:16:15.568Z,35.70
2019-04-30T11:18:41.693Z,36.28
2019-04-30T11:21:09.782Z,36.03
2019-04-30T11:23:39.398Z,41.60
2019-04-30T11:26:06.079Z,36.93
2019-04-30T11:28:33.529Z,40.43
2019-04-30T11:31:19.068Z,37.90
2019-04-30T11:33:46.313Z,37.78
2019-04-30T11:36:13.340Z,34.83
2019-04-30T11:38:40.084Z,35.33
2019-04-30T11:41:08.692Z,33.90
2019-04-30T11:43:35.609Z,34.13
2019-04-30T11:46:24.461Z,33.02
2019-04-30T11:48:51.445Z,37.80
2019-04-30T11:51:19.385Z,36.53
2019-04-30T11:53:46.323Z,36.88
2019-04-30T11:56:13.147Z,38.73
2019-04-30T11:58:39.991Z,37.08
2019-04-30T12:01:10.283Z,34.73
2019-04-30T12:03:37.181Z,34.33
2019-04-30T12:06:04.339Z,33.73
2019-04-30T12:08:33.099Z,35.63
2019-04-30T12:11:02.123Z,38.98
2019-04-30T12:13:29.811Z,40.55
2019-04-30T12:15:59.125Z,38.35
2019-04-30T12:18:25.949Z,35.85
2019-04-30T12:20:53.699Z,36.50
2019-04-30T12:23:20.833Z,38.73
2019-04-30T12:25:49.271Z,36.00
2019-04-30T12:28:16.552Z,34.55
2019-04-30T12:30:43.930Z,35.98
2019-04-30T12:33:10.963Z,40.20
2019-04-30T12:35:37.944Z,39.03
2019-04-30T12:38:04.611Z,41.18
2019-04-30T12:40:32.756Z,37.13
2019-04-30T12:42:59.948Z,36.65
2019-04-30T12:45:29.321Z,37.08
2019-04-30T12:48:00.885Z,38.02
2019-04-30T12:50:35.830Z,43.78
2019-04-30T12:53:09.446Z,43.08
2019-04-30T12:55:55.508Z,44.45
2019-04-30T12:58:22.869Z,42.93
2019-04-30T13:00:50.226Z,46.18
2019-04-30T13:03:17.358Z,44.30
2019-04-30T13:05:44.721Z,43.58
2019-04-30T13:08:12.549Z,49.63
2019-04-30T13:10:42.466Z,42.43
2019-04-30T13:13:10.821Z,42.10
2019-04-30T13:15:38.007Z,42.67
2019-04-30T13:18:05.147Z,42.17
2019-04-30T13:20:32.204Z,41.23
2019-04-30T13:22:59.209Z,42.33
2019-04-30T13:25:33.911Z,41.90
2019-04-30T13:27:59.131Z,41.37
2019-04-30T13:33:04.328Z,42.83
2019-04-30T13:35:31.235Z,42.25
2019-04-30T13:38:00.427Z,41.08
2019-04-30T13:40:32.233Z,39.30
2019-04-30T13:43:00.996Z,39.23
2019-04-30T13:45:28.816Z,40.78
2019-04-30T13:47:55.753Z,42.58
2019-04-30T13:50:22.844Z,43.13
2019-04-30T13:52:49.517Z,39.85
2019-04-30T13:55:16.784Z,39.38
2019-04-30T13:57:43.917Z,36.55
2019-04-30T14:00:14.439Z,41.23
2019-04-30T14:02:44.806Z,43.10
2019-04-30T14:05:13.967Z,40.00
2019-04-30T14:07:44.200Z,41.13
2019-04-30T14:10:11.147Z,38.15
2019-04-30T14:12:39.923Z,40.65
2019-04-30T14:15:09.213Z,42.03
2019-04-30T14:17:36.273Z,50.70
2019-04-30T14:20:06.410Z,38.10
2019-04-30T14:22:33.722Z,39.33
2019-04-30T14:25:01.003Z,41.40
2019-04-30T14:27:28.135Z,39.18
2019-04-30T14:29:55.087Z,37.48
2019-04-30T14:32:21.964Z,40.52
2019-04-30T14:34:50.692Z,41.58
2019-04-30T14:37:17.751Z,39.48
2019-04-30T14:39:44.686Z,38.78
2019-04-30T14:42:12.612Z,36.25
2019-04-30T14:44:40.495Z,40.28
2019-04-30T14:47:27.259Z,43.02
2019-04-30T14:50:09.866Z,41.08
2019-04-30T14:52:41.458Z,39.85
2019-04-30T14:55:26.812Z,38.45
2019-04-30T14:58:12.735Z,38.55
2019-04-30T15:00:41.522Z,38.28
2019-04-30T15:03:12.975Z,38.35
2019-04-30T15:08:08.752Z,38.88
2019-04-30T15:10:35.361Z,41.25
2019-04-30T15:13:02.708Z,41.53
2019-04-30T15:15:30.906Z,42.70
2019-04-30T15:17:59.266Z,39.65
2019-04-30T15:20:26.324Z,38.95
2019-04-30T15:23:04.267Z,37.78
2019-04-30T15:25:34.187Z,39.03
2019-04-30T15:27:59.705Z,37.90
2019-04-30T15:30:28.766Z,42.03
2019-04-30T15:33:00.169Z,36.63
2019-04-30T15:35:27.310Z,39.45
2019-04-30T15:37:56.269Z,35.15
2019-04-30T15:40:25.291Z,38.73
2019-04-30T15:42:55.616Z,36.28
2019-04-30T15:45:23.091Z,37.90
2019-04-30T15:47:50.373Z,36.77
2019-04-30T15:50:39.409Z,35.30
2019-04-30T15:53:09.430Z,36.48
2019-04-30T15:55:35.725Z,34.15
2019-04-30T15:58:05.942Z,34.25
2019-04-30T16:00:32.969Z,42.95
2019-04-30T16:03:01.875Z,42.95
2019-04-30T16:05:30.800Z,64.15
2019-04-30T16:08:01.832Z,40.52
2019-04-30T16:10:47.637Z,60.52
2019-04-30T16:13:16.899Z,41.02
2019-04-30T16:15:43.795Z,40.23
2019-04-30T16:18:11.077Z,45.28
2019-04-30T16:20:40.094Z,43.23
2019-04-30T16:23:09.066Z,42.65
2019-04-30T16:25:35.983Z,40.40
2019-04-30T16:28:02.788Z,42.67
2019-04-30T16:30:30.142Z,41.85
2019-04-30T16:32:59.495Z,39.60
2019-04-30T16:35:29.420Z,35.63
2019-04-30T16:37:55.223Z,38.55
2019-04-30T16:40:22.273Z,40.98
2019-04-30T16:42:50.926Z,36.75
2019-04-30T16:45:19.501Z,34.38
2019-04-30T16:47:47.401Z,33.98
2019-04-30T16:50:14.898Z,35.15
2019-04-30T16:52:42.114Z,34.13
2019-04-30T16:55:09.202Z,31.20
2019-04-30T16:57:36.556Z,32.83
2019-04-30T17:00:09.194Z,32.42
2019-04-30T17:02:39.303Z,31.37
2019-04-30T17:05:11.113Z,30.15
2019-04-30T17:07:45.206Z,33.23
2019-04-30T17:10:20.206Z,31.30
2019-04-30T17:12:49.627Z,36.25
2019-04-30T17:15:22.958Z,31.00
2019-04-30T17:17:50.296Z,31.25
2019-04-30T17:20:18.483Z,33.40
2019-04-30T17:22:46.950Z,29.25
2019-04-30T17:25:14.370Z,28.50
2019-04-30T17:27:41.395Z,30.23
2019-04-30T17:30:11.010Z,29.27
2019-04-30T17:32:45.135Z,31.77
2019-04-30T17:35:12.248Z,30.80
2019-04-30T17:37:44.325Z,26.87
2019-04-30T17:40:13.416Z,29.72
2019-04-30T17:42:52.531Z,30.62
2019-04-30T17:45:22.402Z,31.23
2019-04-30T17:47:49.997Z,30.15
2019-04-30T17:50:18.774Z,32.10
2019-04-30T17:52:46.229Z,30.17
2019-04-30T17:55:14.604Z,32.95
2019-04-30T17:57:41.679Z,27.80
2019-04-30T18:00:18.914Z,30.43
2019-04-30T18:02:43.830Z,31.27
2019-04-30T18:05:11.725Z,30.15
2019-04-30T18:07:39.463Z,26.57
2019-04-30T18:10:10.126Z,30.10
2019-04-30T18:12:38.745Z,29.48
2019-04-30T18:15:10.246Z,29.70
2019-04-30T18:20:09.018Z,29.45
2019-04-30T18:22:43.569Z,30.40
2019-04-30T18:25:12.785Z,28.40
2019-04-30T18:27:46.339Z,33.90
2019-04-30T18:30:15.319Z,28.00
2019-04-30T18:32:42.397Z,30.85
2019-04-30T18:35:09.539Z,29.27
2019-04-30T18:37:38.613Z,28.35
2019-04-30T18:40:06.639Z,28.73
2019-04-30T18:42:33.784Z,30.10
2019-04-30T18:45:00.915Z,29.45
2019-04-30T18:47:27.828Z,32.73
2019-04-30T18:49:56.844Z,30.45
2019-04-30T18:52:24.034Z,33.28
2019-04-30T18:54:51.605Z,32.08
2019-04-30T18:57:29.196Z,33.13
2019-04-30T18:59:56.111Z,33.00
2019-04-30T19:02:23.034Z,32.42
2019-04-30T19:05:02.772Z,33.53
2019-04-30T19:07:31.644Z,36.38
2019-04-30T19:10:17.251Z,35.40
2019-04-30T19:13:02.950Z,36.50
2019-04-30T19:16:14.825Z,37.50
2019-04-30T19:18:27.978Z,37.70
2019-04-30T19:20:56.332Z,39.23
2019-04-30T19:23:23.390Z,35.52
2019-04-30T19:25:52.290Z,37.83
2019-04-30T19:28:19.320Z,34.88
2019-04-30T19:30:55.784Z,37.10
2019-04-30T19:33:19.778Z,35.70
2019-04-30T19:35:50.370Z,37.17
2019-04-30T19:38:18.177Z,37.85
2019-04-30T19:40:45.113Z,36.17
2019-04-30T19:43:11.776Z,39.65
2019-04-30T19:45:41.454Z,36.58
2019-04-30T19:48:09.054Z,40.17
2019-04-30T19:50:36.627Z,36.25
2019-04-30T19:53:03.634Z,38.88
2019-04-30T19:55:30.094Z,36.98
2019-04-30T19:57:56.963Z,37.28
2019-04-30T20:00:23.484Z,40.03
2019-04-30T20:02:50.751Z,39.38
2019-04-30T20:05:19.386Z,39.63
2019-04-30T20:07:46.779Z,39.78
2019-04-30T20:10:17.289Z,38.40
2019-04-30T20:12:46.546Z,39.83
2019-04-30T20:15:18.932Z,39.53
2019-04-30T20:17:53.227Z,42.33
2019-04-30T20:20:20.079Z,41.18
2019-04-30T20:22:47.030Z,41.75
2019-04-30T20:25:20.558Z,49.33
2019-04-30T20:27:49.474Z,42.90
2019-04-30T20:30:16.105Z,44.18
2019-04-30T20:32:43.384Z,46.42
2019-04-30T20:35:14.291Z,44.85
2019-04-30T20:37:59.700Z,43.68
2019-04-30T20:40:37.174Z,43.17
2019-04-30T20:42:58.578Z,40.88
2019-04-30T20:45:25.802Z,41.58
2019-04-30T20:47:52.731Z,41.28
2019-04-30T20:50:26.947Z,41.18
2019-04-30T20:52:53.897Z,41.68
2019-04-30T20:55:21.349Z,40.88
2019-04-30T20:57:50.867Z,42.35
2019-04-30T21:00:17.839Z,40.75
2019-04-30T21:02:44.671Z,41.90
2019-04-30T21:05:11.985Z,44.48
2019-04-30T21:07:39.087Z,43.25
2019-04-30T21:10:06.637Z,39.80
2019-04-30T21:12:33.317Z,40.38
2019-04-30T21:15:00.564Z,42.85
2019-04-30T21:17:28.585Z,43.28
2019-04-30T21:19:55.654Z,41.37
2019-04-30T21:22:22.962Z,46.33
2019-04-30T21:24:50.336Z,44.45
2019-04-30T21:27:17.282Z,41.77
2019-04-30T21:29:44.220Z,39.95
2019-04-30T21:32:24.976Z,44.53
2019-04-30T21:34:54.214Z,45.80
2019-04-30T21:37:21.549Z,42.80
2019-04-30T21:39:50.177Z,42.15
2019-04-30T21:42:17.452Z,42.13
2019-04-30T21:44:44.175Z,45.12
2019-04-30T21:47:11.009Z,44.88
2019-04-30T21:49:38.345Z,44.13
2019-04-30T21:52:05.414Z,44.73
2019-04-30T21:54:32.513Z,43.10
2019-04-30T21:57:01.567Z,43.65
2019-04-30T21:59:30.427Z,44.88
2019-04-30T22:01:57.889Z,43.83
2019-04-30T22:04:26.304Z,47.90
2019-04-30T22:06:55.672Z,44.65
2019-04-30T22:09:24.723Z,47.03
2019-04-30T22:11:54.911Z,49.30
2019-04-30T22:15:24.397Z,49.30
2019-04-30T22:17:59.746Z,47.55
2019-04-30T22:20:29.054Z,49.75
2019-04-30T22:22:55.745Z,48.95
2019-04-30T22:25:22.807Z,52.03
2019-04-30T22:27:50.276Z,49.30
2019-04-30T22:30:18.668Z,46.48
2019-04-30T22:32:45.525Z,53.58
2019-04-30T22:35:20.853Z,50.67
2019-04-30T22:37:50.629Z,55.60
2019-04-30T22:40:19.466Z,48.95
2019-04-30T22:42:46.500Z,48.92
2019-04-30T22:45:16.258Z,50.25
2019-04-30T22:47:43.357Z,53.78
2019-04-30T22:50:10.833Z,48.30
2019-04-30T22:52:39.485Z,51.08
2019-04-30T22:58:19.176Z,52.78
2019-04-30T23:00:52.693Z,51.60
2019-04-30T23:03:32.254Z,52.03
2019-04-30T23:06:02.939Z,53.08
2019-04-30T23:08:30.225Z,56.18
2019-04-30T23:10:57.443Z,54.55
2019-04-30T23:13:26.318Z,55.65
2019-04-30T23:15:56.628Z,55.25
2019-04-30T23:21:42.157Z,54.70
2019-04-30T23:24:09.431Z,54.73
2019-04-30T23:26:50.169Z,56.33
2019-04-30T23:29:19.500Z,57.03
2019-04-30T23:31:46.674Z,57.95
2019-04-30T23:34:18.073Z,55.00
2019-04-30T23:36:42.785Z,57.67
2019-04-30T23:39:10.635Z,54.55
2019-04-30T23:41:39.702Z,57.58
2019-04-30T23:44:14.527Z,54.18
2019-04-30T23:46:42.121Z,57.98
2019-04-30T23:49:09.254Z,51.83
2019-04-30T23:51:36.319Z,54.55
2019-04-30T23:54:03.322Z,55.92
2019-04-30T23:56:30.301Z,57.53
2019-04-30T23:58:57.456Z,58.83
